sensor_id;sensor_type;location;lat;lon;timestamp;P1;durP1;ratioP1;P2;durP2;ratioP2
51465;SDS011;37542;50.164;9.086;2022-07-19T00:01:22;3.63;;;2.10;;
51465;SDS011;37542;50.164;9.086;2022-07-19T00:05:04;3.10;;;2.10;;
51465;SDS011;37542;50.164;9.086;2022-07-19T00:08:47;4.15;;;2.05;;
51465;SDS011;37542;50.164;9.086;2022-07-19T00:12:28;2.50;;;1.73;;
51465;SDS011;37542;50.164;9.086;2022-07-19T00:16:08;1.92;;;1.60;;
51465;SDS011;37542;50.164;9.086;2022-07-19T00:19:49;3.47;;;2.25;;
51465;SDS011;37542;50.164;9.086;2022-07-19T00:23:30;5.10;;;2.00;;
51465;SDS011;37542;50.164;9.086;2022-07-19T00:27:11;4.07;;;2.45;;
51465;SDS011;37542;50.164;9.086;2022-07-19T00:30:52;3.35;;;2.10;;
51465;SDS011;37542;50.164;9.086;2022-07-19T00:34:32;3.00;;;1.90;;
51465;SDS011;37542;50.164;9.086;2022-07-19T00:38:14;2.95;;;2.08;;
51465;SDS011;37542;50.164;9.086;2022-07-19T00:41:55;3.05;;;1.75;;
51465;SDS011;37542;50.164;9.086;2022-07-19T00:45:35;3.83;;;1.95;;
51465;SDS011;37542;50.164;9.086;2022-07-19T00:49:17;3.15;;;1.80;;
51465;SDS011;37542;50.164;9.086;2022-07-19T00:52:59;2.92;;;1.80;;
51465;SDS011;37542;50.164;9.086;2022-07-19T00:56:42;3.33;;;1.92;;
51465;SDS011;37542;50.164;9.086;2022-07-19T01:00:31;4.10;;;1.90;;
51465;SDS011;37542;50.164;9.086;2022-07-19T01:04:14;3.40;;;2.17;;
51465;SDS011;37542;50.164;9.086;2022-07-19T01:07:58;2.75;;;2.00;;
51465;SDS011;37542;50.164;9.086;2022-07-19T01:11:39;3.17;;;2.13;;
51465;SDS011;37542;50.164;9.086;2022-07-19T01:15:22;3.28;;;2.00;;
51465;SDS011;37542;50.164;9.086;2022-07-19T01:22:47;3.10;;;1.88;;
51465;SDS011;37542;50.164;9.086;2022-07-19T01:26:28;2.10;;;1.73;;
51465;SDS011;37542;50.164;9.086;2022-07-19T01:30:10;2.45;;;2.00;;
51465;SDS011;37542;50.164;9.086;2022-07-19T01:33:53;3.72;;;2.10;;
51465;SDS011;37542;50.164;9.086;2022-07-19T01:37:35;3.25;;;1.90;;
51465;SDS011;37542;50.164;9.086;2022-07-19T01:41:16;3.30;;;1.83;;
51465;SDS011;37542;50.164;9.086;2022-07-19T01:44:57;3.25;;;1.85;;
51465;SDS011;37542;50.164;9.086;2022-07-19T01:48:38;2.58;;;1.90;;
51465;SDS011;37542;50.164;9.086;2022-07-19T01:52:19;4.07;;;2.30;;
51465;SDS011;37542;50.164;9.086;2022-07-19T01:56:00;3.70;;;1.70;;
51465;SDS011;37542;50.164;9.086;2022-07-19T01:59:44;2.58;;;1.73;;
51465;SDS011;37542;50.164;9.086;2022-07-19T02:03:25;2.45;;;1.75;;
51465;SDS011;37542;50.164;9.086;2022-07-19T02:07:06;5.22;;;2.78;;
51465;SDS011;37542;50.164;9.086;2022-07-19T02:10:47;2.72;;;1.90;;
51465;SDS011;37542;50.164;9.086;2022-07-19T02:14:28;2.28;;;1.90;;
51465;SDS011;37542;50.164;9.086;2022-07-19T02:18:08;2.75;;;1.80;;
51465;SDS011;37542;50.164;9.086;2022-07-19T02:21:49;2.70;;;1.95;;
51465;SDS011;37542;50.164;9.086;2022-07-19T02:25:30;3.67;;;1.90;;
51465;SDS011;37542;50.164;9.086;2022-07-19T02:29:11;2.72;;;2.10;;
51465;SDS011;37542;50.164;9.086;2022-07-19T02:32:52;3.28;;;2.03;;
51465;SDS011;37542;50.164;9.086;2022-07-19T02:36:33;3.08;;;1.63;;
51465;SDS011;37542;50.164;9.086;2022-07-19T02:40:14;2.15;;;1.60;;
51465;SDS011;37542;50.164;9.086;2022-07-19T02:43:54;2.78;;;1.90;;
51465;SDS011;37542;50.164;9.086;2022-07-19T02:47:35;2.88;;;1.98;;
51465;SDS011;37542;50.164;9.086;2022-07-19T02:51:16;3.53;;;2.10;;
51465;SDS011;37542;50.164;9.086;2022-07-19T02:54:56;2.80;;;2.17;;
51465;SDS011;37542;50.164;9.086;2022-07-19T02:58:37;3.95;;;1.83;;
51465;SDS011;37542;50.164;9.086;2022-07-19T03:02:18;2.95;;;2.13;;
51465;SDS011;37542;50.164;9.086;2022-07-19T03:05:59;3.65;;;2.03;;
51465;SDS011;37542;50.164;9.086;2022-07-19T03:09:39;2.25;;;1.67;;
51465;SDS011;37542;50.164;9.086;2022-07-19T03:13:20;3.50;;;2.05;;
51465;SDS011;37542;50.164;9.086;2022-07-19T03:17:01;5.07;;;2.13;;
51465;SDS011;37542;50.164;9.086;2022-07-19T03:20:42;3.33;;;1.83;;
51465;SDS011;37542;50.164;9.086;2022-07-19T03:24:23;2.63;;;2.00;;
51465;SDS011;37542;50.164;9.086;2022-07-19T03:28:04;2.92;;;2.03;;
51465;SDS011;37542;50.164;9.086;2022-07-19T03:31:44;3.08;;;2.30;;
51465;SDS011;37542;50.164;9.086;2022-07-19T03:35:26;6.05;;;2.22;;
51465;SDS011;37542;50.164;9.086;2022-07-19T03:39:07;3.22;;;2.10;;
51465;SDS011;37542;50.164;9.086;2022-07-19T03:42:47;5.03;;;2.03;;
51465;SDS011;37542;50.164;9.086;2022-07-19T03:46:28;4.97;;;2.20;;
51465;SDS011;37542;50.164;9.086;2022-07-19T03:50:09;5.55;;;2.20;;
51465;SDS011;37542;50.164;9.086;2022-07-19T03:53:50;6.15;;;2.10;;
51465;SDS011;37542;50.164;9.086;2022-07-19T03:57:31;5.53;;;2.88;;
51465;SDS011;37542;50.164;9.086;2022-07-19T04:01:12;3.83;;;2.05;;
51465;SDS011;37542;50.164;9.086;2022-07-19T04:04:52;5.85;;;2.10;;
51465;SDS011;37542;50.164;9.086;2022-07-19T04:08:33;5.32;;;2.50;;
51465;SDS011;37542;50.164;9.086;2022-07-19T04:12:14;5.78;;;2.40;;
51465;SDS011;37542;50.164;9.086;2022-07-19T04:15:55;3.88;;;2.10;;
51465;SDS011;37542;50.164;9.086;2022-07-19T04:19:36;3.78;;;2.05;;
51465;SDS011;37542;50.164;9.086;2022-07-19T04:23:17;3.92;;;1.92;;
51465;SDS011;37542;50.164;9.086;2022-07-19T04:26:58;3.75;;;2.20;;
51465;SDS011;37542;50.164;9.086;2022-07-19T04:30:39;4.88;;;2.10;;
51465;SDS011;37542;50.164;9.086;2022-07-19T04:34:19;4.10;;;2.53;;
51465;SDS011;37542;50.164;9.086;2022-07-19T04:38:00;4.30;;;1.90;;
51465;SDS011;37542;50.164;9.086;2022-07-19T04:41:41;2.63;;;1.90;;
51465;SDS011;37542;50.164;9.086;2022-07-19T04:45:22;3.33;;;2.03;;
51465;SDS011;37542;50.164;9.086;2022-07-19T04:49:03;3.55;;;2.08;;
51465;SDS011;37542;50.164;9.086;2022-07-19T04:52:44;2.97;;;2.08;;
51465;SDS011;37542;50.164;9.086;2022-07-19T04:56:25;3.10;;;2.03;;
51465;SDS011;37542;50.164;9.086;2022-07-19T05:00:07;3.90;;;2.30;;
51465;SDS011;37542;50.164;9.086;2022-07-19T05:03:50;4.57;;;2.40;;
51465;SDS011;37542;50.164;9.086;2022-07-19T05:07:31;3.30;;;2.05;;
51465;SDS011;37542;50.164;9.086;2022-07-19T05:11:11;6.05;;;2.20;;
51465;SDS011;37542;50.164;9.086;2022-07-19T05:14:52;4.05;;;2.20;;
51465;SDS011;37542;50.164;9.086;2022-07-19T05:18:33;6.40;;;2.15;;
51465;SDS011;37542;50.164;9.086;2022-07-19T05:22:14;3.00;;;2.20;;
51465;SDS011;37542;50.164;9.086;2022-07-19T05:25:54;3.88;;;2.30;;
51465;SDS011;37542;50.164;9.086;2022-07-19T05:29:35;4.05;;;2.00;;
51465;SDS011;37542;50.164;9.086;2022-07-19T05:33:16;5.93;;;2.08;;
51465;SDS011;37542;50.164;9.086;2022-07-19T05:36:57;3.10;;;1.90;;
51465;SDS011;37542;50.164;9.086;2022-07-19T05:40:37;4.55;;;2.08;;
51465;SDS011;37542;50.164;9.086;2022-07-19T05:44:18;3.38;;;2.17;;
51465;SDS011;37542;50.164;9.086;2022-07-19T05:47:59;3.47;;;1.85;;
51465;SDS011;37542;50.164;9.086;2022-07-19T05:51:40;4.82;;;2.20;;
51465;SDS011;37542;50.164;9.086;2022-07-19T05:55:21;23.08;;;2.83;;
51465;SDS011;37542;50.164;9.086;2022-07-19T05:59:01;3.40;;;1.88;;
51465;SDS011;37542;50.164;9.086;2022-07-19T06:02:42;4.30;;;2.40;;
51465;SDS011;37542;50.164;9.086;2022-07-19T06:06:24;6.15;;;1.85;;
51465;SDS011;37542;50.164;9.086;2022-07-19T06:10:10;2.90;;;1.92;;
51465;SDS011;37542;50.164;9.086;2022-07-19T06:13:51;5.50;;;2.15;;
51465;SDS011;37542;50.164;9.086;2022-07-19T06:17:32;2.80;;;1.85;;
51465;SDS011;37542;50.164;9.086;2022-07-19T06:21:13;2.35;;;1.75;;
51465;SDS011;37542;50.164;9.086;2022-07-19T06:24:58;4.68;;;2.20;;
51465;SDS011;37542;50.164;9.086;2022-07-19T06:28:39;3.17;;;2.10;;
51465;SDS011;37542;50.164;9.086;2022-07-19T06:32:20;7.20;;;2.30;;
51465;SDS011;37542;50.164;9.086;2022-07-19T06:36:00;3.60;;;1.88;;
51465;SDS011;37542;50.164;9.086;2022-07-19T06:39:41;4.13;;;2.15;;
51465;SDS011;37542;50.164;9.086;2022-07-19T06:43:22;2.85;;;1.77;;
51465;SDS011;37542;50.164;9.086;2022-07-19T06:47:02;4.38;;;1.90;;
51465;SDS011;37542;50.164;9.086;2022-07-19T06:50:43;4.05;;;1.90;;
51465;SDS011;37542;50.164;9.086;2022-07-19T06:54:24;2.50;;;2.00;;
51465;SDS011;37542;50.164;9.086;2022-07-19T06:58:05;3.58;;;2.00;;
51465;SDS011;37542;50.164;9.086;2022-07-19T07:01:45;3.55;;;1.83;;
51465;SDS011;37542;50.164;9.086;2022-07-19T07:05:27;7.82;;;1.90;;
51465;SDS011;37542;50.164;9.086;2022-07-19T07:09:08;3.50;;;1.90;;
51465;SDS011;37542;50.164;9.086;2022-07-19T07:12:48;4.35;;;1.80;;
51465;SDS011;37542;50.164;9.086;2022-07-19T07:16:29;2.95;;;1.65;;
51465;SDS011;37542;50.164;9.086;2022-07-19T07:20:10;2.72;;;1.90;;
51465;SDS011;37542;50.164;9.086;2022-07-19T07:23:52;3.45;;;1.80;;
51465;SDS011;37542;50.164;9.086;2022-07-19T07:27:33;4.75;;;1.60;;
51465;SDS011;37542;50.164;9.086;2022-07-19T07:31:13;4.60;;;2.10;;
51465;SDS011;37542;50.164;9.086;2022-07-19T07:34:54;3.78;;;1.80;;
51465;SDS011;37542;50.164;9.086;2022-07-19T07:38:35;2.63;;;1.73;;
51465;SDS011;37542;50.164;9.086;2022-07-19T07:42:16;6.10;;;2.00;;
51465;SDS011;37542;50.164;9.086;2022-07-19T07:45:57;3.38;;;2.20;;
51465;SDS011;37542;50.164;9.086;2022-07-19T07:49:38;3.03;;;1.70;;
51465;SDS011;37542;50.164;9.086;2022-07-19T07:53:19;1.73;;;1.50;;
51465;SDS011;37542;50.164;9.086;2022-07-19T07:56:59;4.38;;;1.90;;
51465;SDS011;37542;50.164;9.086;2022-07-19T08:00:40;3.00;;;1.75;;
51465;SDS011;37542;50.164;9.086;2022-07-19T08:04:21;4.18;;;1.98;;
51465;SDS011;37542;50.164;9.086;2022-07-19T08:08:02;2.72;;;1.70;;
51465;SDS011;37542;50.164;9.086;2022-07-19T08:11:43;4.65;;;1.92;;
51465;SDS011;37542;50.164;9.086;2022-07-19T08:15:24;8.05;;;2.10;;
51465;SDS011;37542;50.164;9.086;2022-07-19T08:19:05;7.32;;;2.03;;
51465;SDS011;37542;50.164;9.086;2022-07-19T08:22:46;2.40;;;1.65;;
51465;SDS011;37542;50.164;9.086;2022-07-19T08:26:26;2.70;;;1.80;;
51465;SDS011;37542;50.164;9.086;2022-07-19T08:30:07;4.55;;;1.73;;
51465;SDS011;37542;50.164;9.086;2022-07-19T08:33:49;3.22;;;1.70;;
51465;SDS011;37542;50.164;9.086;2022-07-19T08:37:30;2.20;;;1.60;;
51465;SDS011;37542;50.164;9.086;2022-07-19T08:41:11;2.33;;;1.48;;
51465;SDS011;37542;50.164;9.086;2022-07-19T08:44:55;2.67;;;1.75;;
51465;SDS011;37542;50.164;9.086;2022-07-19T08:48:41;3.15;;;1.80;;
51465;SDS011;37542;50.164;9.086;2022-07-19T08:52:27;3.58;;;1.73;;
51465;SDS011;37542;50.164;9.086;2022-07-19T08:56:08;1.92;;;1.60;;
51465;SDS011;37542;50.164;9.086;2022-07-19T09:00:07;8.18;;;1.80;;
51465;SDS011;37542;50.164;9.086;2022-07-19T09:04:04;2.42;;;1.70;;
51465;SDS011;37542;50.164;9.086;2022-07-19T09:07:58;2.50;;;1.55;;
51465;SDS011;37542;50.164;9.086;2022-07-19T09:15:37;3.65;;;1.75;;
51465;SDS011;37542;50.164;9.086;2022-07-19T09:19:40;2.53;;;1.60;;
51465;SDS011;37542;50.164;9.086;2022-07-19T09:23:25;4.15;;;1.80;;
51465;SDS011;37542;50.164;9.086;2022-07-19T09:27:13;1.75;;;1.50;;
51465;SDS011;37542;50.164;9.086;2022-07-19T09:30:57;1.52;;;1.40;;
51465;SDS011;37542;50.164;9.086;2022-07-19T09:34:41;2.08;;;1.40;;
51465;SDS011;37542;50.164;9.086;2022-07-19T09:38:29;2.40;;;1.60;;
51465;SDS011;37542;50.164;9.086;2022-07-19T09:42:15;2.00;;;1.55;;
51465;SDS011;37542;50.164;9.086;2022-07-19T09:50:18;3.15;;;1.73;;
51465;SDS011;37542;50.164;9.086;2022-07-19T09:54:02;1.85;;;1.50;;
51465;SDS011;37542;50.164;9.086;2022-07-19T09:57:46;2.63;;;1.60;;
51465;SDS011;37542;50.164;9.086;2022-07-19T10:01:29;1.70;;;1.50;;
51465;SDS011;37542;50.164;9.086;2022-07-19T10:05:12;2.25;;;1.60;;
51465;SDS011;37542;50.164;9.086;2022-07-19T10:08:53;1.75;;;1.40;;
51465;SDS011;37542;50.164;9.086;2022-07-19T10:12:34;3.65;;;1.70;;
51465;SDS011;37542;50.164;9.086;2022-07-19T10:16:32;2.65;;;1.58;;
51465;SDS011;37542;50.164;9.086;2022-07-19T10:20:31;3.30;;;1.70;;
51465;SDS011;37542;50.164;9.086;2022-07-19T10:24:13;2.08;;;1.70;;
51465;SDS011;37542;50.164;9.086;2022-07-19T10:27:54;2.10;;;1.58;;
51465;SDS011;37542;50.164;9.086;2022-07-19T10:31:35;2.67;;;1.60;;
51465;SDS011;37542;50.164;9.086;2022-07-19T10:35:20;3.22;;;1.35;;
51465;SDS011;37542;50.164;9.086;2022-07-19T10:43:11;3.03;;;2.00;;
51465;SDS011;37542;50.164;9.086;2022-07-19T10:47:00;4.18;;;1.75;;
51465;SDS011;37542;50.164;9.086;2022-07-19T10:50:42;3.08;;;1.73;;
51465;SDS011;37542;50.164;9.086;2022-07-19T10:54:33;1.85;;;1.55;;
51465;SDS011;37542;50.164;9.086;2022-07-19T10:58:14;3.40;;;1.90;;
51465;SDS011;37542;50.164;9.086;2022-07-19T11:01:55;2.72;;;1.65;;
51465;SDS011;37542;50.164;9.086;2022-07-19T11:05:47;4.57;;;1.73;;
51465;SDS011;37542;50.164;9.086;2022-07-19T11:09:39;4.57;;;1.85;;
51465;SDS011;37542;50.164;9.086;2022-07-19T11:13:29;2.38;;;1.70;;
51465;SDS011;37542;50.164;9.086;2022-07-19T11:17:10;2.67;;;1.60;;
51465;SDS011;37542;50.164;9.086;2022-07-19T11:20:51;2.42;;;1.80;;
51465;SDS011;37542;50.164;9.086;2022-07-19T11:24:36;2.35;;;1.73;;
51465;SDS011;37542;50.164;9.086;2022-07-19T11:28:22;1.60;;;1.50;;
51465;SDS011;37542;50.164;9.086;2022-07-19T11:32:05;2.83;;;1.80;;
51465;SDS011;37542;50.164;9.086;2022-07-19T11:35:58;3.08;;;1.75;;
51465;SDS011;37542;50.164;9.086;2022-07-19T11:39:49;1.90;;;1.50;;
51465;SDS011;37542;50.164;9.086;2022-07-19T11:43:30;2.72;;;1.55;;
51465;SDS011;37542;50.164;9.086;2022-07-19T11:47:11;2.40;;;1.70;;
51465;SDS011;37542;50.164;9.086;2022-07-19T11:51:00;5.13;;;1.75;;
51465;SDS011;37542;50.164;9.086;2022-07-19T11:55:00;5.65;;;1.70;;
51465;SDS011;37542;50.164;9.086;2022-07-19T11:58:40;2.65;;;1.67;;
51465;SDS011;37542;50.164;9.086;2022-07-19T12:02:23;2.25;;;1.65;;
51465;SDS011;37542;50.164;9.086;2022-07-19T12:06:05;2.25;;;1.60;;
51465;SDS011;37542;50.164;9.086;2022-07-19T12:09:48;2.78;;;1.90;;
51465;SDS011;37542;50.164;9.086;2022-07-19T12:13:32;3.25;;;1.73;;
51465;SDS011;37542;50.164;9.086;2022-07-19T12:17:16;4.40;;;1.60;;
51465;SDS011;37542;50.164;9.086;2022-07-19T12:21:16;2.53;;;1.80;;
51465;SDS011;37542;50.164;9.086;2022-07-19T12:25:06;3.17;;;1.70;;
51465;SDS011;37542;50.164;9.086;2022-07-19T12:28:49;2.80;;;1.85;;
51465;SDS011;37542;50.164;9.086;2022-07-19T12:32:31;5.15;;;2.20;;
51465;SDS011;37542;50.164;9.086;2022-07-19T12:36:34;3.30;;;1.58;;
51465;SDS011;37542;50.164;9.086;2022-07-19T12:40:21;3.38;;;1.67;;
51465;SDS011;37542;50.164;9.086;2022-07-19T12:44:05;4.28;;;1.70;;
51465;SDS011;37542;50.164;9.086;2022-07-19T12:47:46;2.38;;;1.73;;
51465;SDS011;37542;50.164;9.086;2022-07-19T12:51:28;3.60;;;1.90;;
51465;SDS011;37542;50.164;9.086;2022-07-19T12:55:09;3.00;;;1.90;;
51465;SDS011;37542;50.164;9.086;2022-07-19T12:58:50;2.75;;;1.90;;
51465;SDS011;37542;50.164;9.086;2022-07-19T13:02:50;3.40;;;2.00;;
51465;SDS011;37542;50.164;9.086;2022-07-19T13:06:32;2.40;;;1.80;;
51465;SDS011;37542;50.164;9.086;2022-07-19T13:10:12;3.35;;;1.90;;
51465;SDS011;37542;50.164;9.086;2022-07-19T13:13:54;3.17;;;1.85;;
51465;SDS011;37542;50.164;9.086;2022-07-19T13:17:35;3.00;;;1.75;;
51465;SDS011;37542;50.164;9.086;2022-07-19T13:21:17;3.88;;;2.00;;
51465;SDS011;37542;50.164;9.086;2022-07-19T13:24:57;2.88;;;1.95;;
51465;SDS011;37542;50.164;9.086;2022-07-19T13:28:38;3.35;;;2.00;;
51465;SDS011;37542;50.164;9.086;2022-07-19T13:32:19;3.28;;;2.17;;
51465;SDS011;37542;50.164;9.086;2022-07-19T13:36:00;3.60;;;2.20;;
51465;SDS011;37542;50.164;9.086;2022-07-19T13:39:40;3.00;;;2.03;;
51465;SDS011;37542;50.164;9.086;2022-07-19T13:43:22;2.58;;;1.98;;
51465;SDS011;37542;50.164;9.086;2022-07-19T13:47:02;1.88;;;1.67;;
51465;SDS011;37542;50.164;9.086;2022-07-19T13:50:43;3.20;;;1.90;;
51465;SDS011;37542;50.164;9.086;2022-07-19T13:54:24;4.95;;;2.03;;
51465;SDS011;37542;50.164;9.086;2022-07-19T13:58:05;3.42;;;1.80;;
51465;SDS011;37542;50.164;9.086;2022-07-19T14:01:46;4.85;;;2.10;;
51465;SDS011;37542;50.164;9.086;2022-07-19T14:05:26;2.70;;;1.95;;
51465;SDS011;37542;50.164;9.086;2022-07-19T14:09:07;4.38;;;2.00;;
51465;SDS011;37542;50.164;9.086;2022-07-19T14:12:48;5.22;;;2.17;;
51465;SDS011;37542;50.164;9.086;2022-07-19T14:16:29;5.72;;;2.00;;
51465;SDS011;37542;50.164;9.086;2022-07-19T14:20:10;2.80;;;1.95;;
51465;SDS011;37542;50.164;9.086;2022-07-19T14:23:51;5.32;;;2.22;;
51465;SDS011;37542;50.164;9.086;2022-07-19T14:27:32;3.75;;;1.73;;
51465;SDS011;37542;50.164;9.086;2022-07-19T14:31:13;5.13;;;2.00;;
51465;SDS011;37542;50.164;9.086;2022-07-19T14:34:55;4.60;;;2.17;;
51465;SDS011;37542;50.164;9.086;2022-07-19T14:38:36;2.45;;;1.58;;
51465;SDS011;37542;50.164;9.086;2022-07-19T14:42:17;3.72;;;1.98;;
51465;SDS011;37542;50.164;9.086;2022-07-19T14:45:58;2.65;;;1.58;;
51465;SDS011;37542;50.164;9.086;2022-07-19T14:49:39;7.15;;;2.22;;
51465;SDS011;37542;50.164;9.086;2022-07-19T14:53:20;4.90;;;2.13;;
51465;SDS011;37542;50.164;9.086;2022-07-19T14:57:01;2.17;;;1.80;;
51465;SDS011;37542;50.164;9.086;2022-07-19T15:00:42;6.65;;;2.38;;
51465;SDS011;37542;50.164;9.086;2022-07-19T15:04:23;4.30;;;2.08;;
51465;SDS011;37542;50.164;9.086;2022-07-19T15:08:05;2.83;;;2.00;;
51465;SDS011;37542;50.164;9.086;2022-07-19T15:11:46;3.40;;;1.80;;
51465;SDS011;37542;50.164;9.086;2022-07-19T15:15:27;4.88;;;2.08;;
51465;SDS011;37542;50.164;9.086;2022-07-19T15:19:08;2.40;;;2.00;;
51465;SDS011;37542;50.164;9.086;2022-07-19T15:22:49;3.00;;;2.08;;
51465;SDS011;37542;50.164;9.086;2022-07-19T15:26:30;6.40;;;2.35;;
51465;SDS011;37542;50.164;9.086;2022-07-19T15:30:11;3.35;;;2.10;;
51465;SDS011;37542;50.164;9.086;2022-07-19T15:33:57;3.17;;;2.17;;
51465;SDS011;37542;50.164;9.086;2022-07-19T15:37:38;4.45;;;2.10;;
51465;SDS011;37542;50.164;9.086;2022-07-19T15:41:19;2.85;;;1.80;;
51465;SDS011;37542;50.164;9.086;2022-07-19T15:45:00;3.15;;;1.90;;
51465;SDS011;37542;50.164;9.086;2022-07-19T15:48:41;3.45;;;2.00;;
51465;SDS011;37542;50.164;9.086;2022-07-19T15:52:22;3.30;;;2.20;;
51465;SDS011;37542;50.164;9.086;2022-07-19T15:56:03;2.80;;;2.10;;
51465;SDS011;37542;50.164;9.086;2022-07-19T15:59:44;2.58;;;1.85;;
51465;SDS011;37542;50.164;9.086;2022-07-19T16:03:25;5.57;;;1.88;;
51465;SDS011;37542;50.164;9.086;2022-07-19T16:07:06;3.90;;;1.77;;
51465;SDS011;37542;50.164;9.086;2022-07-19T16:10:46;2.58;;;1.73;;
51465;SDS011;37542;50.164;9.086;2022-07-19T16:14:27;2.78;;;1.95;;
51465;SDS011;37542;50.164;9.086;2022-07-19T16:18:08;6.80;;;2.15;;
51465;SDS011;37542;50.164;9.086;2022-07-19T16:21:51;3.13;;;1.98;;
51465;SDS011;37542;50.164;9.086;2022-07-19T16:25:33;4.20;;;2.30;;
51465;SDS011;37542;50.164;9.086;2022-07-19T16:29:14;3.97;;;2.20;;
51465;SDS011;37542;50.164;9.086;2022-07-19T16:32:55;2.75;;;1.73;;
51465;SDS011;37542;50.164;9.086;2022-07-19T16:36:36;2.38;;;2.08;;
51465;SDS011;37542;50.164;9.086;2022-07-19T16:40:17;2.97;;;2.08;;
51465;SDS011;37542;50.164;9.086;2022-07-19T16:43:58;5.15;;;2.13;;
51465;SDS011;37542;50.164;9.086;2022-07-19T16:47:38;2.85;;;2.03;;
51465;SDS011;37542;50.164;9.086;2022-07-19T16:51:21;6.28;;;2.15;;
51465;SDS011;37542;50.164;9.086;2022-07-19T16:55:02;4.95;;;2.10;;
51465;SDS011;37542;50.164;9.086;2022-07-19T16:58:43;1.98;;;1.70;;
51465;SDS011;37542;50.164;9.086;2022-07-19T17:02:24;6.78;;;2.40;;
51465;SDS011;37542;50.164;9.086;2022-07-19T17:06:05;3.53;;;2.30;;
51465;SDS011;37542;50.164;9.086;2022-07-19T17:09:46;3.08;;;2.15;;
51465;SDS011;37542;50.164;9.086;2022-07-19T17:13:27;4.70;;;2.30;;
51465;SDS011;37542;50.164;9.086;2022-07-19T17:17:09;2.53;;;2.00;;
51465;SDS011;37542;50.164;9.086;2022-07-19T17:20:50;7.07;;;2.55;;
51465;SDS011;37542;50.164;9.086;2022-07-19T17:24:31;3.53;;;2.10;;
51465;SDS011;37542;50.164;9.086;2022-07-19T17:28:12;4.38;;;2.47;;
51465;SDS011;37542;50.164;9.086;2022-07-19T17:31:52;4.32;;;1.95;;
51465;SDS011;37542;50.164;9.086;2022-07-19T17:35:33;2.45;;;1.65;;
51465;SDS011;37542;50.164;9.086;2022-07-19T17:39:14;2.15;;;1.73;;
51465;SDS011;37542;50.164;9.086;2022-07-19T17:42:55;4.30;;;2.00;;
51465;SDS011;37542;50.164;9.086;2022-07-19T17:46:37;3.85;;;1.80;;
51465;SDS011;37542;50.164;9.086;2022-07-19T17:50:20;3.38;;;2.22;;
51465;SDS011;37542;50.164;9.086;2022-07-19T17:54:01;3.55;;;1.92;;
51465;SDS011;37542;50.164;9.086;2022-07-19T17:57:42;2.70;;;1.90;;
51465;SDS011;37542;50.164;9.086;2022-07-19T18:01:23;4.50;;;2.00;;
51465;SDS011;37542;50.164;9.086;2022-07-19T18:05:04;3.20;;;2.15;;
51465;SDS011;37542;50.164;9.086;2022-07-19T18:08:49;2.25;;;1.73;;
51465;SDS011;37542;50.164;9.086;2022-07-19T18:12:38;4.43;;;1.80;;
51465;SDS011;37542;50.164;9.086;2022-07-19T18:16:19;5.15;;;2.00;;
51465;SDS011;37542;50.164;9.086;2022-07-19T18:20:03;2.78;;;1.80;;
51465;SDS011;37542;50.164;9.086;2022-07-19T18:23:45;5.90;;;2.10;;
51465;SDS011;37542;50.164;9.086;2022-07-19T18:27:29;4.65;;;2.00;;
51465;SDS011;37542;50.164;9.086;2022-07-19T18:31:13;3.97;;;1.90;;
51465;SDS011;37542;50.164;9.086;2022-07-19T18:34:58;3.20;;;1.90;;
51465;SDS011;37542;50.164;9.086;2022-07-19T18:38:46;3.40;;;1.75;;
51465;SDS011;37542;50.164;9.086;2022-07-19T18:42:28;2.33;;;1.85;;
51465;SDS011;37542;50.164;9.086;2022-07-19T18:46:11;3.20;;;1.73;;
51465;SDS011;37542;50.164;9.086;2022-07-19T18:49:52;4.15;;;2.28;;
51465;SDS011;37542;50.164;9.086;2022-07-19T18:53:38;2.50;;;2.00;;
51465;SDS011;37542;50.164;9.086;2022-07-19T18:57:19;3.55;;;2.05;;
51465;SDS011;37542;50.164;9.086;2022-07-19T19:01:00;6.13;;;2.10;;
51465;SDS011;37542;50.164;9.086;2022-07-19T19:04:41;3.95;;;2.25;;
51465;SDS011;37542;50.164;9.086;2022-07-19T19:08:22;6.70;;;2.28;;
51465;SDS011;37542;50.164;9.086;2022-07-19T19:12:03;4.97;;;2.80;;
51465;SDS011;37542;50.164;9.086;2022-07-19T19:15:45;5.35;;;2.40;;
51465;SDS011;37542;50.164;9.086;2022-07-19T19:19:26;8.00;;;2.58;;
51465;SDS011;37542;50.164;9.086;2022-07-19T19:23:07;6.25;;;2.35;;
51465;SDS011;37542;50.164;9.086;2022-07-19T19:26:49;4.72;;;2.50;;
51465;SDS011;37542;50.164;9.086;2022-07-19T19:30:30;3.90;;;2.22;;
51465;SDS011;37542;50.164;9.086;2022-07-19T19:34:13;3.67;;;2.55;;
51465;SDS011;37542;50.164;9.086;2022-07-19T19:37:54;3.42;;;2.35;;
51465;SDS011;37542;50.164;9.086;2022-07-19T19:41:34;5.45;;;2.80;;
51465;SDS011;37542;50.164;9.086;2022-07-19T19:45:15;5.10;;;2.58;;
51465;SDS011;37542;50.164;9.086;2022-07-19T19:48:56;4.45;;;2.35;;
51465;SDS011;37542;50.164;9.086;2022-07-19T19:52:37;5.65;;;2.53;;
51465;SDS011;37542;50.164;9.086;2022-07-19T19:56:18;3.90;;;2.15;;
51465;SDS011;37542;50.164;9.086;2022-07-19T20:00:00;4.82;;;2.30;;
51465;SDS011;37542;50.164;9.086;2022-07-19T20:03:41;4.70;;;2.30;;
51465;SDS011;37542;50.164;9.086;2022-07-19T20:07:21;3.10;;;2.25;;
51465;SDS011;37542;50.164;9.086;2022-07-19T20:11:02;4.75;;;2.30;;
51465;SDS011;37542;50.164;9.086;2022-07-19T20:14:43;3.63;;;2.53;;
51465;SDS011;37542;50.164;9.086;2022-07-19T20:18:24;3.88;;;2.40;;
51465;SDS011;37542;50.164;9.086;2022-07-19T20:22:05;2.92;;;2.10;;
51465;SDS011;37542;50.164;9.086;2022-07-19T20:25:46;6.05;;;2.63;;
51465;SDS011;37542;50.164;9.086;2022-07-19T20:29:26;12.57;;;2.53;;
51465;SDS011;37542;50.164;9.086;2022-07-19T20:33:07;8.73;;;3.25;;
51465;SDS011;37542;50.164;9.086;2022-07-19T20:36:48;10.30;;;2.92;;
51465;SDS011;37542;50.164;9.086;2022-07-19T20:40:29;9.68;;;3.40;;
51465;SDS011;37542;50.164;9.086;2022-07-19T20:44:11;7.85;;;2.80;;
51465;SDS011;37542;50.164;9.086;2022-07-19T20:47:52;6.20;;;2.47;;
51465;SDS011;37542;50.164;9.086;2022-07-19T20:51:33;6.47;;;2.40;;
51465;SDS011;37542;50.164;9.086;2022-07-19T20:55:14;5.57;;;3.13;;
51465;SDS011;37542;50.164;9.086;2022-07-19T20:58:55;5.88;;;2.67;;
51465;SDS011;37542;50.164;9.086;2022-07-19T21:02:36;5.57;;;2.53;;
51465;SDS011;37542;50.164;9.086;2022-07-19T21:06:18;4.47;;;2.55;;
51465;SDS011;37542;50.164;9.086;2022-07-19T21:09:59;4.25;;;2.38;;
51465;SDS011;37542;50.164;9.086;2022-07-19T21:13:39;4.95;;;2.42;;
51465;SDS011;37542;50.164;9.086;2022-07-19T21:17:20;4.30;;;2.38;;
51465;SDS011;37542;50.164;9.086;2022-07-19T21:21:01;4.82;;;2.60;;
51465;SDS011;37542;50.164;9.086;2022-07-19T21:24:42;6.78;;;2.70;;
51465;SDS011;37542;50.164;9.086;2022-07-19T21:28:30;4.60;;;2.47;;
51465;SDS011;37542;50.164;9.086;2022-07-19T21:32:13;7.38;;;2.80;;
51465;SDS011;37542;50.164;9.086;2022-07-19T21:35:54;5.30;;;2.55;;
51465;SDS011;37542;50.164;9.086;2022-07-19T21:39:35;6.20;;;2.53;;
51465;SDS011;37542;50.164;9.086;2022-07-19T21:43:16;5.80;;;2.50;;
51465;SDS011;37542;50.164;9.086;2022-07-19T21:46:57;4.38;;;2.80;;
51465;SDS011;37542;50.164;9.086;2022-07-19T21:50:37;6.45;;;3.40;;
51465;SDS011;37542;50.164;9.086;2022-07-19T21:54:18;5.78;;;2.42;;
51465;SDS011;37542;50.164;9.086;2022-07-19T21:57:59;5.43;;;2.75;;
51465;SDS011;37542;50.164;9.086;2022-07-19T22:01:40;4.82;;;2.63;;
51465;SDS011;37542;50.164;9.086;2022-07-19T22:05:21;7.05;;;2.53;;
51465;SDS011;37542;50.164;9.086;2022-07-19T22:09:02;5.50;;;2.80;;
51465;SDS011;37542;50.164;9.086;2022-07-19T22:12:44;5.43;;;2.60;;
51465;SDS011;37542;50.164;9.086;2022-07-19T22:16:25;7.03;;;2.50;;
51465;SDS011;37542;50.164;9.086;2022-07-19T22:20:06;7.07;;;2.47;;
51465;SDS011;37542;50.164;9.086;2022-07-19T22:23:47;3.88;;;2.42;;
51465;SDS011;37542;50.164;9.086;2022-07-19T22:27:28;9.10;;;2.72;;
51465;SDS011;37542;50.164;9.086;2022-07-19T22:31:10;7.88;;;2.65;;
51465;SDS011;37542;50.164;9.086;2022-07-19T22:34:51;4.70;;;2.47;;